createdAt,value
2019-01-11T00:00:09.395Z,48.54
2019-01-11T00:02:41.617Z,48.57
2019-01-11T00:05:12.020Z,48.51
2019-01-11T00:07:43.087Z,48.64
2019-01-11T00:10:13.569Z,48.37
2019-01-11T00:12:44.356Z,48.46
2019-01-11T00:15:14.653Z,49.04
2019-01-11T00:17:44.972Z,48.80
2019-01-11T00:20:15.435Z,48.49
2019-01-11T00:22:47.503Z,48.77
2019-01-11T00:25:17.768Z,48.64
2019-01-11T00:27:48.175Z,48.54
2019-01-11T00:30:18.533Z,48.51
2019-01-11T00:32:49.320Z,48.61
2019-01-11T00:35:19.620Z,48.52
2019-01-11T00:37:51.405Z,48.37
2019-01-11T00:40:21.701Z,48.44
2019-01-11T00:42:52.979Z,48.59
2019-01-11T00:45:23.250Z,48.48
2019-01-11T00:47:55.175Z,48.73
2019-01-11T00:50:25.496Z,50.28
2019-01-11T00:52:57.764Z,50.30
2019-01-11T00:55:28.061Z,50.55
2019-01-11T00:57:58.475Z,50.79
2019-01-11T01:00:28.918Z,50.34
2019-01-11T01:03:00.202Z,49.73
2019-01-11T01:05:30.494Z,50.55
2019-01-11T01:08:01.665Z,51.19
2019-01-11T01:10:32.957Z,50.73
2019-01-11T01:13:03.953Z,52.67
2019-01-11T01:15:34.232Z,50.71
2019-01-11T01:18:04.836Z,50.39
2019-01-11T01:20:35.212Z,49.90
2019-01-11T01:23:07.000Z,49.53
2019-01-11T01:25:37.327Z,50.27
2019-01-11T01:28:07.873Z,50.47
2019-01-11T01:30:38.153Z,50.96
2019-01-11T01:33:09.429Z,50.58
2019-01-11T01:35:39.701Z,50.01
2019-01-11T01:38:11.282Z,51.63
2019-01-11T01:40:42.607Z,52.65
2019-01-11T01:43:13.534Z,51.41
2019-01-11T01:45:44.033Z,53.53
2019-01-11T01:48:15.972Z,53.70
2019-01-11T01:50:46.270Z,52.31
2019-01-11T01:53:19.306Z,53.74
2019-01-11T01:55:49.584Z,52.68
2019-01-11T01:58:19.978Z,52.82
2019-01-11T02:00:50.280Z,53.40
2019-01-11T02:03:21.099Z,52.97
2019-01-11T02:05:51.470Z,52.09
2019-01-11T02:08:23.002Z,51.86
2019-01-11T02:10:53.285Z,51.75
2019-01-11T02:13:24.446Z,51.49
2019-01-11T02:15:54.733Z,50.95
2019-01-11T02:18:25.099Z,50.85
2019-01-11T02:20:55.606Z,50.62
2019-01-11T02:23:27.521Z,50.38
2019-01-11T02:25:57.852Z,51.78
2019-01-11T02:28:28.192Z,51.02
2019-01-11T02:30:58.490Z,50.96
2019-01-11T02:33:29.375Z,51.02
2019-01-11T02:35:59.640Z,52.08
2019-01-11T02:38:32.305Z,52.25
2019-01-11T02:41:02.848Z,51.92
2019-01-11T02:43:33.787Z,51.54
2019-01-11T02:46:04.056Z,50.96
2019-01-11T02:48:35.118Z,51.96
2019-01-11T02:51:05.406Z,52.56
2019-01-11T02:53:36.689Z,51.57
2019-01-11T02:56:07.079Z,51.08
2019-01-11T02:58:37.814Z,53.03
2019-01-11T03:01:08.124Z,53.18
2019-01-11T03:03:39.085Z,54.04
2019-01-11T03:06:09.372Z,53.51
2019-01-11T03:08:40.354Z,53.49
2019-01-11T03:11:10.644Z,56.52
2019-01-11T03:13:41.430Z,55.48
2019-01-11T03:16:11.710Z,55.76
2019-01-11T03:18:42.325Z,54.75
2019-01-11T03:21:12.598Z,55.42
2019-01-11T03:23:44.669Z,57.97
2019-01-11T03:26:15.128Z,56.66
2019-01-11T03:28:45.419Z,58.46
2019-01-11T03:31:24.892Z,58.67
2019-01-11T03:33:55.799Z,57.21
2019-01-11T03:36:26.084Z,56.50
2019-01-11T03:38:56.365Z,56.13
2019-01-11T03:41:26.743Z,54.94
2019-01-11T03:43:57.509Z,55.79
2019-01-11T03:46:27.907Z,54.88
2019-01-11T03:48:59.836Z,55.84
2019-01-11T03:51:30.232Z,55.36
2019-01-11T03:54:00.964Z,55.41
2019-01-11T03:56:31.808Z,56.60
2019-01-11T03:59:02.069Z,58.72
2019-01-11T04:01:32.473Z,56.91
2019-01-11T04:04:03.270Z,56.07
2019-01-11T04:06:33.551Z,56.23
2019-01-11T04:09:04.980Z,55.90
2019-01-11T04:11:35.243Z,55.64
2019-01-11T04:14:05.771Z,54.79
2019-01-11T04:16:36.550Z,54.63
2019-01-11T04:19:12.866Z,57.38
2019-01-11T04:21:51.363Z,55.58
2019-01-11T04:24:23.274Z,55.41
2019-01-11T04:26:54.352Z,55.77
2019-01-11T04:29:26.043Z,55.76
2019-01-11T04:31:57.458Z,55.83
2019-01-11T04:34:27.754Z,55.14
2019-01-11T04:36:58.029Z,54.47
2019-01-11T04:39:28.790Z,54.34
2019-01-11T04:41:59.663Z,55.72
2019-01-11T04:44:30.060Z,55.70
2019-01-11T04:47:02.084Z,55.08
2019-01-11T04:49:33.404Z,54.42
2019-01-11T04:52:04.339Z,54.13
2019-01-11T04:54:34.612Z,54.82
2019-01-11T04:57:05.066Z,54.08
2019-01-11T04:59:35.351Z,53.51
2019-01-11T05:02:06.798Z,53.80
2019-01-11T05:04:37.078Z,53.87
2019-01-11T05:07:07.352Z,54.28
2019-01-11T05:09:38.081Z,53.59
2019-01-11T05:12:10.333Z,53.17
2019-01-11T05:14:40.619Z,53.49
2019-01-11T05:17:10.924Z,53.73
2019-01-11T05:19:41.739Z,53.04
2019-01-11T05:22:12.601Z,53.13
2019-01-11T05:24:43.086Z,53.86
2019-01-11T05:27:13.435Z,53.98
2019-01-11T05:29:43.713Z,53.23
2019-01-11T05:32:15.034Z,53.05
2019-01-11T05:34:45.849Z,53.41
2019-01-11T05:37:17.069Z,53.16
2019-01-11T05:39:47.420Z,52.78
2019-01-11T05:42:17.712Z,53.11
2019-01-11T05:44:47.989Z,53.89
2019-01-11T05:47:18.808Z,53.25
2019-01-11T05:49:49.747Z,53.58
2019-01-11T05:52:20.112Z,53.30
2019-01-11T05:54:50.406Z,53.08
2019-01-11T05:57:21.279Z,52.91
2019-01-11T05:59:52.738Z,52.90
2019-01-11T06:02:23.058Z,52.92
2019-01-11T06:05:05.634Z,53.43
2019-01-11T06:07:43.947Z,53.00
2019-01-11T06:10:16.372Z,52.99
2019-01-11T06:12:46.681Z,52.92
2019-01-11T06:15:17.076Z,53.18
2019-01-11T06:17:47.440Z,53.33
2019-01-11T06:20:19.856Z,52.90
2019-01-11T06:22:50.162Z,53.69
2019-01-11T06:25:20.452Z,53.88
2019-01-11T06:27:50.772Z,54.98
2019-01-11T06:30:21.543Z,53.93
2019-01-11T06:32:51.861Z,53.41
2019-01-11T06:35:22.167Z,53.38
2019-01-11T06:37:52.467Z,53.41
2019-01-11T06:40:23.142Z,54.05
2019-01-11T06:42:53.938Z,53.26
2019-01-11T06:45:24.218Z,53.20
2019-01-11T06:47:54.528Z,53.59
2019-01-11T06:50:25.581Z,53.10
2019-01-11T06:52:55.976Z,52.74
2019-01-11T06:55:26.875Z,52.77
2019-01-11T06:57:57.282Z,53.44
2019-01-11T07:00:27.671Z,53.31
2019-01-11T07:02:57.984Z,55.05
2019-01-11T07:05:28.787Z,55.48
2019-01-11T07:07:59.059Z,54.04
2019-01-11T07:10:29.693Z,53.82
2019-01-11T07:12:59.981Z,53.76
2019-01-11T07:15:32.083Z,53.68
2019-01-11T07:18:02.392Z,53.32
2019-01-11T07:20:32.823Z,52.85
2019-01-11T07:23:03.126Z,53.23
2019-01-11T07:25:34.003Z,52.76
2019-01-11T07:28:04.330Z,52.53
2019-01-11T07:30:50.103Z,52.24
2019-01-11T07:33:22.031Z,52.28
2019-01-11T07:35:56.506Z,52.25
2019-01-11T07:38:26.814Z,52.80
2019-01-11T07:40:57.157Z,53.20
2019-01-11T07:43:27.523Z,53.17
2019-01-11T07:45:58.408Z,52.86
2019-01-11T07:48:28.705Z,52.66
2019-01-11T07:51:01.214Z,52.51
2019-01-11T07:53:31.532Z,52.32
2019-01-11T07:56:02.681Z,52.68
2019-01-11T07:58:32.958Z,52.40
2019-01-11T08:01:03.347Z,52.29
2019-01-11T08:03:33.748Z,53.01
2019-01-11T08:06:06.130Z,53.57
2019-01-11T08:08:36.411Z,54.37
2019-01-11T08:11:06.802Z,54.51
2019-01-11T08:13:37.109Z,54.49
2019-01-11T08:16:08.358Z,54.64
2019-01-11T08:18:38.765Z,54.61
2019-01-11T08:21:09.598Z,54.29
2019-01-11T08:23:39.904Z,54.29
2019-01-11T08:26:11.433Z,54.56
2019-01-11T08:28:41.705Z,53.99
2019-01-11T08:31:12.034Z,54.18
2019-01-11T08:33:42.336Z,54.00
2019-01-11T08:36:14.669Z,53.85
2019-01-11T08:38:44.955Z,54.09
2019-01-11T08:41:15.340Z,53.88
2019-01-11T08:43:45.650Z,54.31
2019-01-11T08:46:16.879Z,54.36
2019-01-11T08:48:47.173Z,53.99
2019-01-11T08:51:19.880Z,54.28
2019-01-11T08:53:50.312Z,54.12
2019-01-11T08:56:21.196Z,53.78
2019-01-11T08:58:51.510Z,53.64
2019-01-11T09:01:21.871Z,54.20
2019-01-11T09:03:52.333Z,53.58
2019-01-11T09:06:24.741Z,53.50
2019-01-11T09:08:55.031Z,53.77
2019-01-11T09:11:25.774Z,53.63
2019-01-11T09:13:56.093Z,53.11
2019-01-11T09:16:26.941Z,53.62
2019-01-11T09:18:59.768Z,54.02
2019-01-11T09:21:31.095Z,53.45
2019-01-11T09:24:01.444Z,53.20
2019-01-11T09:26:32.263Z,53.11
2019-01-11T09:29:02.946Z,53.83
2019-01-11T09:31:33.596Z,53.76
2019-01-11T09:34:03.878Z,53.63
2019-01-11T09:36:35.690Z,54.04
2019-01-11T09:39:09.287Z,53.47
2019-01-11T09:41:39.632Z,53.57
2019-01-11T09:44:09.939Z,53.34
2019-01-11T09:46:40.799Z,53.21
2019-01-11T09:49:11.084Z,52.83
2019-01-11T09:51:44.097Z,52.81
2019-01-11T09:54:14.389Z,52.48
2019-01-11T09:56:45.298Z,52.58
2019-01-11T09:59:15.579Z,52.35
2019-01-11T10:01:47.545Z,52.28
2019-01-11T10:04:23.073Z,52.78
2019-01-11T10:07:05.827Z,52.24
2019-01-11T10:09:38.434Z,52.03
2019-01-11T10:12:09.057Z,52.52
2019-01-11T10:14:39.328Z,52.25
2019-01-11T10:17:09.623Z,52.20
2019-01-11T10:19:40.507Z,52.39
2019-01-11T10:22:10.812Z,52.15
2019-01-11T10:24:42.289Z,52.14
2019-01-11T10:27:12.611Z,52.27
2019-01-11T10:29:43.490Z,52.31
2019-01-11T10:32:13.829Z,52.38
2019-01-11T10:34:44.159Z,52.54
2019-01-11T10:37:14.469Z,52.35
2019-01-11T10:39:44.728Z,52.01
2019-01-11T10:42:16.104Z,52.28
2019-01-11T10:44:46.411Z,52.52
2019-01-11T10:47:16.813Z,53.73
2019-01-11T10:49:48.082Z,53.46
2019-01-11T10:52:20.478Z,53.61
2019-01-11T10:54:50.758Z,53.22
2019-01-11T10:57:21.646Z,53.24
2019-01-11T10:59:51.974Z,54.11
2019-01-11T11:02:22.727Z,53.95
2019-01-11T11:04:53.018Z,54.22
2019-01-11T11:07:23.408Z,54.89
2019-01-11T11:09:53.686Z,54.01
2019-01-11T11:12:25.519Z,54.08
2019-01-11T11:14:55.899Z,53.54
2019-01-11T11:17:26.287Z,53.74
2019-01-11T11:19:56.566Z,53.78
2019-01-11T11:22:27.882Z,53.54
2019-01-11T11:24:58.203Z,53.12
2019-01-11T11:27:28.533Z,53.15
2019-01-11T11:29:59.373Z,53.47
2019-01-11T11:32:47.780Z,53.01
2019-01-11T11:35:18.450Z,53.57
2019-01-11T11:37:48.735Z,53.29
2019-01-11T11:40:19.139Z,53.22
2019-01-11T11:42:49.553Z,53.32
2019-01-11T11:45:20.466Z,53.52
2019-01-11T11:47:50.747Z,53.65
2019-01-11T11:50:21.713Z,54.37
2019-01-11T11:52:52.648Z,53.41
2019-01-11T11:55:23.965Z,53.24
2019-01-11T11:57:54.759Z,52.82
2019-01-11T12:00:27.830Z,52.95
2019-01-11T12:02:58.136Z,52.88
2019-01-11T12:05:28.426Z,53.31
2019-01-11T12:07:59.591Z,53.58
2019-01-11T12:10:30.928Z,53.44
2019-01-11T12:13:01.756Z,53.30
2019-01-11T12:15:32.099Z,53.12
2019-01-11T12:18:02.397Z,52.79
2019-01-11T12:20:33.635Z,53.06
2019-01-11T12:23:04.577Z,53.31
2019-01-11T12:25:36.354Z,53.51
2019-01-11T12:28:07.028Z,53.62
2019-01-11T12:30:37.415Z,54.50
2019-01-11T12:33:08.238Z,54.89
2019-01-11T12:35:38.581Z,54.80
2019-01-11T12:38:13.668Z,54.98
2019-01-11T12:40:40.928Z,54.13
2019-01-11T12:43:11.251Z,54.30
2019-01-11T12:45:44.451Z,55.06
2019-01-11T12:48:14.819Z,55.45
2019-01-11T12:50:45.160Z,55.27
2019-01-11T12:53:16.830Z,55.04
2019-01-11T12:55:47.671Z,54.92
2019-01-11T12:58:18.704Z,55.33
2019-01-11T13:00:49.275Z,54.85
2019-01-11T13:03:19.629Z,54.41
2019-01-11T13:05:50.119Z,54.42
2019-01-11T13:08:20.896Z,54.32
2019-01-11T13:10:51.550Z,55.20
2019-01-11T13:13:21.973Z,55.35
2019-01-11T13:15:52.342Z,54.71
2019-01-11T13:18:22.653Z,54.75
2019-01-11T13:20:52.988Z,54.16
2019-01-11T13:23:23.909Z,53.99
2019-01-11T13:25:54.353Z,55.08
2019-01-11T13:28:24.661Z,54.69
2019-01-11T13:30:54.952Z,55.88
2019-01-11T13:33:25.321Z,55.60
2019-01-11T13:35:56.940Z,54.84
2019-01-11T13:38:27.764Z,55.04
2019-01-11T13:40:58.054Z,55.01
2019-01-11T13:43:28.364Z,55.46
2019-01-11T13:45:59.645Z,55.40
2019-01-11T13:48:29.913Z,55.19
2019-01-11T13:51:01.863Z,55.02
2019-01-11T13:53:33.900Z,54.68
2019-01-11T13:56:04.292Z,55.66
2019-01-11T13:58:34.596Z,55.19
2019-01-11T14:01:05.507Z,55.04
2019-01-11T14:03:36.390Z,55.82
2019-01-11T14:06:07.809Z,55.91
2019-01-11T14:08:38.110Z,55.71
2019-01-11T14:11:08.540Z,55.17
2019-01-11T14:13:39.418Z,55.37
2019-01-11T14:16:09.800Z,55.94
2019-01-11T14:18:40.154Z,55.50
2019-01-11T14:21:10.443Z,56.03
2019-01-11T14:23:41.832Z,55.88
2019-01-11T14:26:12.157Z,55.62
2019-01-11T14:28:42.454Z,55.87
2019-01-11T14:31:12.880Z,55.41
2019-01-11T14:33:43.722Z,55.43
2019-01-11T14:36:14.053Z,55.83
2019-01-11T14:38:44.341Z,55.95
2019-01-11T14:41:15.890Z,55.41
2019-01-11T14:43:46.874Z,55.42
2019-01-11T14:46:17.242Z,55.44
2019-01-11T14:48:47.548Z,54.96
2019-01-11T14:51:18.030Z,54.63
2019-01-11T14:53:49.735Z,54.68
2019-01-11T14:56:21.331Z,55.05
2019-01-11T14:58:51.642Z,55.39
2019-01-11T15:01:22.270Z,55.62
2019-01-11T15:03:53.107Z,55.22
2019-01-11T15:06:24.439Z,56.17
2019-01-11T15:08:54.732Z,55.32
2019-01-11T15:11:25.100Z,54.90
2019-01-11T15:13:56.337Z,56.36
2019-01-11T15:16:26.928Z,56.24
2019-01-11T15:18:57.243Z,56.38
2019-01-11T15:21:27.525Z,56.21
2019-01-11T15:23:58.376Z,56.33
2019-01-11T15:26:28.681Z,56.99
2019-01-11T15:29:00.722Z,56.51
2019-01-11T15:31:31.299Z,56.28
2019-01-11T15:34:02.154Z,57.37
2019-01-11T15:36:32.436Z,56.30
2019-01-11T15:39:02.771Z,56.13
2019-01-11T15:41:33.481Z,56.01
2019-01-11T15:44:04.201Z,55.81
2019-01-11T15:46:35.777Z,56.23
2019-01-11T15:49:06.221Z,55.94
2019-01-11T15:51:36.502Z,56.73
2019-01-11T15:54:08.116Z,55.80
2019-01-11T15:56:38.917Z,55.51
2019-01-11T15:59:09.206Z,55.34
2019-01-11T16:01:40.393Z,55.35
2019-01-11T16:04:10.846Z,55.48
2019-01-11T16:06:43.263Z,56.78
2019-01-11T16:10:00.527Z,56.56
2019-01-11T16:12:39.682Z,57.64
2019-01-11T16:15:41.433Z,56.84
2019-01-11T16:18:24.930Z,56.70
2019-01-11T16:20:57.045Z,56.54
2019-01-11T16:23:27.361Z,56.49
2019-01-11T16:25:57.667Z,56.48
2019-01-11T16:28:28.069Z,56.35
2019-01-11T16:30:58.856Z,56.79
2019-01-11T16:33:29.181Z,57.10
2019-01-11T16:35:59.483Z,56.93
2019-01-11T16:38:31.167Z,57.79
2019-01-11T16:41:01.905Z,57.84
2019-01-11T16:43:32.232Z,57.96
2019-01-11T16:46:02.698Z,57.79
2019-01-11T16:48:33.876Z,57.30
2019-01-11T16:51:05.631Z,57.42
2019-01-11T16:53:37.446Z,57.44
2019-01-11T16:56:09.902Z,56.81
2019-01-11T16:58:40.298Z,57.93
2019-01-11T17:01:10.630Z,57.77
2019-01-11T17:03:40.957Z,58.10
2019-01-11T17:06:11.719Z,58.07
2019-01-11T17:08:42.674Z,58.09
2019-01-11T17:11:13.007Z,57.20
2019-01-11T17:13:43.304Z,58.69
2019-01-11T17:16:13.860Z,58.81
2019-01-11T17:18:44.674Z,59.34
2019-01-11T17:21:15.102Z,57.75
2019-01-11T17:23:45.949Z,58.84
2019-01-11T17:26:16.522Z,58.11
2019-01-11T17:28:46.766Z,58.64
2019-01-11T17:31:17.101Z,58.36
2019-01-11T17:33:47.967Z,58.23
2019-01-11T17:36:18.262Z,58.87
2019-01-11T17:38:49.253Z,59.87
2019-01-11T17:41:19.560Z,59.51
2019-01-11T17:43:49.964Z,59.70
2019-01-11T17:46:20.338Z,59.53
2019-01-11T17:48:51.054Z,60.46
2019-01-11T17:51:21.346Z,59.91
2019-01-11T17:53:53.028Z,59.51
2019-01-11T17:56:24.883Z,59.17
2019-01-11T17:58:55.613Z,59.32
2019-01-11T18:01:26.385Z,58.18
2019-01-11T18:03:56.732Z,59.55
2019-01-11T18:06:27.049Z,59.24
2019-01-11T18:08:58.402Z,58.93
2019-01-11T18:11:29.378Z,60.07
2019-01-11T18:13:59.775Z,58.97
2019-01-11T18:16:30.163Z,59.29
2019-01-11T18:19:00.478Z,58.38
2019-01-11T18:21:31.428Z,59.78
2019-01-11T18:24:01.747Z,60.07
2019-01-11T18:26:33.521Z,60.31
2019-01-11T18:29:04.009Z,60.15
2019-01-11T18:31:34.905Z,58.91
2019-01-11T18:34:05.421Z,59.20
2019-01-11T18:36:35.864Z,59.51
2019-01-11T18:39:08.904Z,58.87
2019-01-11T18:41:40.798Z,59.02
2019-01-11T18:44:11.098Z,60.05
2019-01-11T18:46:41.431Z,59.97
2019-01-11T18:49:11.715Z,61.22
2019-01-11T18:51:42.630Z,60.05
2019-01-11T18:54:12.911Z,59.44
2019-01-11T18:56:44.512Z,59.06
2019-01-11T18:59:14.797Z,59.72
2019-01-11T19:01:45.677Z,59.06
2019-01-11T19:04:16.082Z,60.10
2019-01-11T19:06:46.403Z,59.75
2019-01-11T19:09:16.774Z,60.31
2019-01-11T19:11:48.190Z,59.34
2019-01-11T19:14:18.506Z,60.00
2019-01-11T19:16:48.963Z,59.79
2019-01-11T19:19:19.238Z,59.79
2019-01-11T19:21:50.130Z,59.37
2019-01-11T19:24:20.454Z,59.09
2019-01-11T19:26:51.681Z,60.12
2019-01-11T19:29:22.048Z,59.24
2019-01-11T19:31:52.846Z,59.36
2019-01-11T19:34:23.143Z,60.51
2019-01-11T19:36:53.444Z,59.52
2019-01-11T19:39:23.781Z,58.97
2019-01-11T19:41:54.537Z,58.74
2019-01-11T19:44:25.700Z,59.09
2019-01-11T19:46:56.002Z,59.62
2019-01-11T19:49:26.307Z,59.15
2019-01-11T19:51:57.091Z,58.67
2019-01-11T19:54:27.508Z,58.71
2019-01-11T19:56:59.154Z,58.29
2019-01-11T19:59:31.159Z,58.20
2019-01-11T20:02:01.993Z,59.61
2019-01-11T20:04:32.323Z,59.13
2019-01-11T20:07:02.629Z,59.65
2019-01-11T20:09:33.162Z,59.04
2019-01-11T20:12:04.042Z,60.08
2019-01-11T20:14:38.124Z,60.76
2019-01-11T20:17:13.997Z,60.53
2019-01-11T20:19:40.528Z,60.81
2019-01-11T20:22:11.471Z,60.56
2019-01-11T20:24:43.387Z,60.71
2019-01-11T20:27:13.697Z,60.76
2019-01-11T20:29:45.094Z,60.36
2019-01-11T20:32:15.900Z,61.54
2019-01-11T20:34:46.358Z,60.60
2019-01-11T20:37:31.210Z,61.64
2019-01-11T20:40:01.558Z,60.46
2019-01-11T20:42:32.385Z,60.83
2019-01-11T20:45:02.687Z,60.20
2019-01-11T20:47:33.517Z,58.66
2019-01-11T20:50:04.013Z,58.71
2019-01-11T20:52:34.305Z,58.78
2019-01-11T20:55:05.270Z,59.37
2019-01-11T20:57:38.337Z,58.98
2019-01-11T21:00:17.778Z,58.41
2019-01-11T21:02:48.204Z,58.58
2019-01-11T21:05:19.659Z,58.33
2019-01-11T21:07:50.605Z,58.37
2019-01-11T21:10:21.322Z,59.05
2019-01-11T21:12:51.656Z,59.61
2019-01-11T21:15:22.267Z,59.38
2019-01-11T21:17:53.046Z,59.05
2019-01-11T21:20:23.512Z,59.18
2019-01-11T21:22:55.521Z,59.51
2019-01-11T21:25:25.906Z,59.90
2019-01-11T21:27:56.749Z,58.84
2019-01-11T21:30:31.281Z,59.53
2019-01-11T21:33:01.775Z,59.08
2019-01-11T21:35:32.171Z,57.97
2019-01-11T21:38:03.778Z,58.03
2019-01-11T21:40:34.082Z,57.60
2019-01-11T21:43:04.881Z,57.83
2019-01-11T21:45:35.214Z,56.90
2019-01-11T21:48:06.213Z,56.56
2019-01-11T21:50:36.685Z,56.92
2019-01-11T21:53:08.137Z,57.41
2019-01-11T21:55:38.405Z,57.91
2019-01-11T21:58:09.918Z,57.81
2019-01-11T22:00:42.491Z,57.93
2019-01-11T22:03:23.407Z,58.02
2019-01-11T22:05:53.702Z,58.03
2019-01-11T22:08:25.150Z,58.20
2019-01-11T22:10:55.470Z,58.51
2019-01-11T22:13:25.860Z,58.89
2019-01-11T22:15:56.159Z,59.08
2019-01-11T22:18:27.035Z,58.54
2019-01-11T22:20:57.563Z,58.76
2019-01-11T22:23:28.369Z,58.10
2019-01-11T22:25:58.659Z,58.09
2019-01-11T22:28:29.602Z,58.53
2019-01-11T22:30:59.918Z,57.42
2019-01-11T22:33:30.317Z,58.81
2019-01-11T22:36:00.675Z,58.58
2019-01-11T22:38:32.623Z,57.57
2019-01-11T22:41:02.987Z,57.35
2019-01-11T22:43:33.391Z,58.84
2019-01-11T22:46:03.673Z,59.38
2019-01-11T22:48:34.709Z,59.94
2019-01-11T22:51:05.041Z,59.02
2019-01-11T22:53:36.611Z,59.89
2019-01-11T22:56:06.901Z,59.64
2019-01-11T22:58:39.107Z,60.73
2019-01-11T23:01:41.693Z,60.82
2019-01-11T23:04:11.998Z,60.11
2019-01-11T23:06:59.965Z,60.46
2019-01-11T23:09:38.405Z,59.67
2019-01-11T23:12:36.692Z,60.09
2019-01-11T23:15:13.190Z,60.01
2019-01-11T23:17:47.449Z,61.16
2019-01-11T23:20:17.879Z,60.08
2019-01-11T23:22:48.617Z,60.23
2019-01-11T23:25:19.989Z,59.40
2019-01-11T23:27:50.282Z,59.72
2019-01-11T23:30:20.559Z,59.73
2019-01-11T23:32:51.556Z,59.47
2019-01-11T23:35:21.838Z,59.12
2019-01-11T23:37:52.232Z,58.70
2019-01-11T23:40:22.555Z,58.95
2019-01-11T23:42:53.576Z,59.04
2019-01-11T23:45:23.996Z,59.58
2019-01-11T23:47:55.713Z,59.49
2019-01-11T23:50:26.133Z,59.69
2019-01-11T23:52:56.445Z,59.82
2019-01-11T23:55:27.255Z,58.80
2019-01-11T23:57:58.937Z,60.12
